Map

Track Data

SID SEASON NUMBER BASIN SUBBASIN NAME ISO_TIME NATURE LAT LON WMO_WIND WMO_PRES WMO_AGENCY TRACK_TYPE DIST2LAND LANDFALL IFLAG USA_AGENCY USA_ATCF_ID USA_LAT USA_LON USA_RECORD USA_STATUS USA_WIND USA_PRES USA_SSHS USA_R34_NE USA_R34_SE USA_R34_SW USA_R34_NW USA_R50_NE USA_R50_SE USA_R50_SW USA_R50_NW USA_R64_NE USA_R64_SE USA_R64_SW USA_R64_NW USA_POCI USA_ROCI USA_RMW USA_EYE TOKYO_LAT TOKYO_LON TOKYO_GRADE TOKYO_WIND TOKYO_PRES TOKYO_R50_DIR TOKYO_R50_LONG TOKYO_R50_SHORT TOKYO_R30_DIR TOKYO_R30_LONG TOKYO_R30_SHORT TOKYO_LAND CMA_LAT CMA_LON CMA_CAT CMA_WIND CMA_PRES HKO_LAT HKO_LON HKO_CAT HKO_WIND HKO_PRES NEWDELHI_LAT NEWDELHI_LON NEWDELHI_GRADE NEWDELHI_WIND NEWDELHI_PRES NEWDELHI_CI NEWDELHI_DP NEWDELHI_POCI REUNION_LAT REUNION_LON REUNION_TYPE REUNION_WIND REUNION_PRES REUNION_TNUM REUNION_CI REUNION_RMW REUNION_R34_NE REUNION_R34_SE REUNION_R34_SW REUNION_R34_NW REUNION_R50_NE REUNION_R50_SE REUNION_R50_SW REUNION_R50_NW REUNION_R64_NE REUNION_R64_SE REUNION_R64_SW REUNION_R64_NW BOM_LAT BOM_LON BOM_TYPE BOM_WIND BOM_PRES BOM_TNUM BOM_CI BOM_RMW BOM_R34_NE BOM_R34_SE BOM_R34_SW BOM_R34_NW BOM_R50_NE BOM_R50_SE BOM_R50_SW BOM_R50_NW BOM_R64_NE BOM_R64_SE BOM_R64_SW BOM_R64_NW BOM_ROCI BOM_POCI BOM_EYE BOM_POS_METHOD BOM_PRES_METHOD NADI_LAT NADI_LON NADI_CAT NADI_WIND NADI_PRES WELLINGTON_LAT WELLINGTON_LON WELLINGTON_WIND WELLINGTON_PRES DS824_LAT DS824_LON DS824_STAGE DS824_WIND DS824_PRES TD9636_LAT TD9636_LON TD9636_STAGE TD9636_WIND TD9636_PRES TD9635_LAT TD9635_LON TD9635_WIND TD9635_PRES TD9635_ROCI NEUMANN_LAT NEUMANN_LON NEUMANN_CLASS NEUMANN_WIND NEUMANN_PRES MLC_LAT MLC_LON MLC_CLASS MLC_WIND MLC_PRES USA_GUST BOM_GUST BOM_GUST_PER REUNION_GUST REUNION_GUST_PER USA_SEAHGT USA_SEARAD_NE USA_SEARAD_SE USA_SEARAD_SW USA_SEARAD_NW STORM_SPEED STORM_DIR
1934304N12071 1934 71 NI AS NOT_NAMED 1934-10-31 00:00:00 TS 12.3000 70.9000 main 427 411 _________O____ -1 12.3000 70.9000 TC 30 4 23
1934304N12071 1934 71 NI AS NOT_NAMED 1934-10-31 03:00:00 TS 12.4667 70.9666 main 411 396 _________PO___ -1 12.5500 71.0000 TC 30 12.3000 70.9000 1 4 21
1934304N12071 1934 71 NI AS NOT_NAMED 1934-10-31 06:00:00 TS 12.7000 71.0587 main 396 387 _________OP___ -1 12.8000 71.1000 TC 30 12.5500 70.9968 1 5 21
1934304N12071 1934 71 NI AS NOT_NAMED 1934-10-31 09:00:00 TS 12.9429 71.1550 main 378 360 _________PP___ -1 13.0500 71.2000 TC 30 12.8000 71.0949 1 5 21
1934304N12071 1934 71 NI AS NOT_NAMED 1934-10-31 12:00:00 TS 13.1750 71.2478 main 360 338 _________OP___ -1 13.3000 71.3000 TC 30 13.0500 71.1956 1 5 21
1934304N12071 1934 71 NI AS NOT_NAMED 1934-10-31 15:00:00 TS 13.4250 71.3500 main 329 311 _________PO___ -1 13.5500 71.4000 TC 31 13.3000 71.3000 1 5 22
1934304N12071 1934 71 NI AS NOT_NAMED 1934-10-31 18:00:00 TS 13.6750 71.4541 main 302 281 _________OP___ -1 13.8000 71.5000 TC 32 13.5500 71.4081 1 5 22
1934304N12071 1934 71 NI AS NOT_NAMED 1934-10-31 21:00:00 TS 13.9250 71.5612 main 281 257 _________PP___ -1 14.0500 71.6075 TC 33 13.8000 71.5150 1 5 22
1934304N12071 1934 71 NI AS NOT_NAMED 1934-11-01 00:00:00 TS 14.1750 71.6572 main 257 249 _________OP___ -1 14.3000 71.7000 TC 34 14.0500 71.6144 1 5 18
1934304N12071 1934 71 NI AS NOT_NAMED 1934-11-01 03:00:00 TS 14.4250 71.7288 main 249 227 _________PO___ -1 14.5500 71.7575 TC 36 14.3000 71.7000 2 5 14
1934304N12071 1934 71 NI AS NOT_NAMED 1934-11-01 06:00:00 TS 14.6750 71.7863 main 227 218 _________OP___ -1 14.8000 71.8000 TC 39 14.5500 71.7725 2 5 13
1934304N12071 1934 71 NI AS NOT_NAMED 1934-11-01 09:00:00 TS 14.9250 71.8438 main 218 198 _________PP___ -1 15.0500 71.8575 TC 42 14.8000 71.8300 2 5 11
1934304N12071 1934 71 NI AS NOT_NAMED 1934-11-01 12:00:00 TS 15.1750 71.8863 main 198 188 _________OP___ -1 15.3000 71.9000 TC 45 15.0500 71.8725 2 5 7
1934304N12071 1934 71 NI AS NOT_NAMED 1934-11-01 15:00:00 TS 15.4250 71.9038 main 188 174 _________PO___ -1 15.5500 71.9075 TC 45 15.3000 71.9000 3 5 3
1934304N12071 1934 71 NI AS NOT_NAMED 1934-11-01 18:00:00 TS 15.6811 71.9113 main 174 163 _________OP___ -1 15.8000 71.9000 TC 45 15.5622 71.9225 3 5 0
1934304N12071 1934 71 NI AS NOT_NAMED 1934-11-01 21:00:00 TS 15.9400 71.9187 main 163 153 _________PP___ -1 16.0575 71.9075 TC 45 15.8225 71.9300 3 5 358
1934304N12071 1934 71 NI AS NOT_NAMED 1934-11-02 00:00:00 TS 16.1858 71.9113 main 153 149 _________OP___ -1 16.3000 71.9000 TC 45 16.0715 71.9225 3 5 354
1934304N12071 1934 71 NI AS NOT_NAMED 1934-11-02 03:00:00 TS 16.4075 71.8788 main 149 149 _________PO___ -1 16.5150 71.8575 TC 45 16.3000 71.9000 3 4 350
1934304N12071 1934 71 NI AS NOT_NAMED 1934-11-02 06:00:00 TS 16.5983 71.8342 main 159 159 _________OP___ -1 16.7000 71.8000 TC 45 16.4966 71.8684 3 4 346
1934304N12071 1934 71 NI AS NOT_NAMED 1934-11-02 09:00:00 TS 16.7650 71.7900 main 159 158 _________PP___ -1 16.8575 71.7575 TC 45 16.6725 71.8225 3 3 343
1934304N12071 1934 71 NI AS NOT_NAMED 1934-11-02 12:00:00 TS 16.9186 71.7326 main 168 158 _________OP___ -1 17.0000 71.7000 TC 45 16.8372 71.7653 3 3 337
1934304N12071 1934 71 NI AS NOT_NAMED 1934-11-02 15:00:00 TS 17.0713 71.6500 main 158 158 _________PO___ -1 17.1425 71.6000 TC 41 17.0000 71.7000 3 4 333
1934304N12071 1934 71 NI AS NOT_NAMED 1934-11-02 18:00:00 TS 17.2395 71.5600 main 165 162 _________OP___ -1 17.3000 71.5000 TC 37 17.1791 71.6201 3 4 336
1934304N12071 1934 71 NI AS NOT_NAMED 1934-11-02 21:00:00 TS 17.4288 71.4851 main 171 167 _________PP___ -1 17.5000 71.4350 TC 33 17.3575 71.5351 3 4 341
1934304N12071 1934 71 NI AS NOT_NAMED 1934-11-03 00:00:00 TS 17.6161 71.4288 main 172 164 _________OP___ -1 17.7000 71.4000 TC 30 17.5322 71.4576 3 4 346
1934304N12071 1934 71 NI AS NOT_NAMED 1934-11-03 03:00:00 TS 17.7787 71.3962 main 164 162 _________PO___ -1 17.8575 71.3925 TC 30 17.7000 71.4000 1 3 351
1934304N12071 1934 71 NI AS NOT_NAMED 1934-11-03 06:00:00 TS 17.9266 71.3892 main 162 158 _________OP___ -1 18.0000 71.4000 TC 30 17.8531 71.3783 1 3 355
1934304N12071 1934 71 NI AS NOT_NAMED 1934-11-03 09:00:00 TS 18.0712 71.3887 main 158 158 _________PP___ -1 18.1425 71.4000 TC 30 18.0000 71.3774 1 3 0
1934304N12071 1934 71 NI AS NOT_NAMED 1934-11-03 12:00:00 TS 18.2234 71.3939 main 158 157 _________OP___ -1 18.3000 71.4000 TC 30 18.1469 71.3877 1 3 0
1934304N12071 1934 71 NI AS NOT_NAMED 1934-11-03 15:00:00 TS 18.4000 71.4000 main 157 151 _________PO___ -1 18.5000 71.4000 TC 30 18.3000 71.4000 1 3 4
1934304N12071 1934 71 NI AS NOT_NAMED 1934-11-03 18:00:00 TS 18.5652 71.4038 main 151 149 _________OP___ -1 18.7000 71.4000 TC 30 18.4641 71.4066 1 3 5
1934304N12071 1934 71 NI AS NOT_NAMED 1934-11-03 21:00:00 TS 18.7275 71.4045 main 149 147 _________PP___ -1 18.8625 71.4000 TC 30 18.6375 71.4076 1 3 355
1934304N12071 1934 71 NI AS NOT_NAMED 1934-11-04 00:00:00 TS 18.8781 71.4032 main 147 147 _________OP___ -1 19.0000 71.4000 TC 30 18.8172 71.4047 1 3 0
1934304N12071 1934 71 NI AS NOT_NAMED 1934-11-04 03:00:00 NR 19.0000 71.4000 main 147 __________O___ -1 TC 19.0000 71.4000 1 2 0

About IBTrACS Database

This database is a web-friendly format of International Best Track Archive for Climate Stewardship (IBTrACS), a global best track data archive curated by NOAA dating back to 1842.

Updated: 2021-12-06